Time;durP1;ratioP1;P1;durP2;ratioP2;P2;SDS_P1;SDS_P2;PMS_P1;PMS_P2;Temp;Humidity;BMP_temperature;BMP_pressure;BME280_temperature;BME280_humidity;BME280_pressure;Samples;Min_cycle;Max_cycle;Signal;HPM_P1;HPM_P2
2020/12/21 00:01:59;;;;;;;15.27;11.73;;;4.50;99.90;;;;;;5035248;28;20203;-59
2020/12/21 00:04:25;;;;;;;14.43;11.30;;;4.40;99.90;;;;;;5034628;28;20172;-54
2020/12/21 00:06:57;;;;;;;14.73;11.17;;;4.50;99.90;;;;;;5034593;28;20196;-54
2020/12/21 00:09:23;;;;;;;15.63;11.67;;;4.50;99.90;;;;;;5034581;28;20294;-57
2020/12/21 00:11:49;;;;;;;13.83;10.40;;;4.50;99.90;;;;;;5034408;28;20191;-52
2020/12/21 00:14:16;;;;;;;15.07;11.43;;;4.60;99.90;;;;;;5034056;28;20172;-52
2020/12/21 00:16:47;;;;;;;14.53;11.43;;;4.60;99.90;;;;;;5034503;28;20234;-54
2020/12/21 00:19:13;;;;;;;15.50;11.90;;;4.60;99.90;;;;;;5034254;28;20179;-51
2020/12/21 00:21:40;;;;;;;15.77;11.23;;;4.60;99.90;;;;;;5034076;28;20258;-50
2020/12/21 00:24:06;;;;;;;16.90;12.33;;;4.70;99.90;;;;;;5034888;28;20283;-52
2020/12/21 00:26:32;;;;;;;14.80;10.97;;;4.70;99.90;;;;;;5033879;28;20194;-50
2020/12/21 00:28:58;;;;;;;17.37;12.50;;;4.70;99.90;;;;;;5039863;28;20231;-51
2020/12/21 00:31:25;;;;;;;17.67;12.53;;;4.70;99.90;;;;;;5053806;28;20189;-54
2020/12/21 00:33:51;;;;;;;15.90;12.33;;;4.70;99.90;;;;;;5053917;28;20205;-49
2020/12/21 00:36:16;;;;;;;16.97;12.33;;;4.70;99.90;;;;;;5052605;28;20653;-49
2020/12/21 00:38:42;;;;;;;17.17;12.50;;;4.70;99.90;;;;;;5053616;28;20195;-59
2020/12/21 00:41:13;;;;;;;16.23;12.20;;;4.70;99.90;;;;;;5053587;28;20171;-56
2020/12/21 00:43:39;;;;;;;19.00;13.30;;;4.70;99.90;;;;;;5054038;28;20190;-59
2020/12/21 00:46:05;;;;;;;15.30;12.00;;;4.60;99.90;;;;;;5053968;28;20183;-55
2020/12/21 00:48:30;;;;;;;16.93;12.50;;;4.70;99.90;;;;;;5053456;28;20209;-55
2020/12/21 00:50:57;;;;;;;17.40;12.43;;;4.70;99.90;;;;;;5053920;28;20237;-57
2020/12/21 00:53:25;;;;;;;18.20;12.87;;;4.70;99.90;;;;;;5054146;28;20233;-58
2020/12/21 00:55:51;;;;;;;16.87;12.17;;;4.70;99.90;;;;;;5053258;28;20273;-53
2020/12/21 00:58:17;;;;;;;16.77;12.03;;;4.70;99.90;;;;;;5053544;28;20214;-53
2020/12/21 01:00:43;;;;;;;16.37;12.60;;;4.70;99.90;;;;;;5053717;28;20167;-59
2020/12/21 01:03:08;;;;;;;16.37;12.33;;;4.70;99.90;;;;;;5054180;28;20190;-52
2020/12/21 01:05:34;;;;;;;16.10;11.33;;;4.70;99.90;;;;;;5053640;28;20178;-53
2020/12/21 01:08:00;;;;;;;15.70;11.83;;;4.70;99.90;;;;;;5055045;28;20527;-51
2020/12/21 01:10:25;;;;;;;14.70;10.53;;;4.80;99.90;;;;;;5056059;28;20279;-50
2020/12/21 01:12:51;;;;;;;14.00;11.67;;;4.80;99.90;;;;;;5057364;28;20183;-59
2020/12/21 01:15:16;;;;;;;16.50;11.53;;;4.80;99.90;;;;;;5057492;28;20182;-51
2020/12/21 01:17:42;;;;;;;17.13;12.30;;;4.80;99.90;;;;;;5056634;28;20643;-51
2020/12/21 01:20:07;;;;;;;15.97;12.07;;;4.80;99.90;;;;;;5057432;28;20175;-51
2020/12/21 01:22:33;;;;;;;18.03;12.10;;;4.80;99.90;;;;;;5057886;28;20545;-51
2020/12/21 01:24:58;;;;;;;16.30;11.90;;;4.80;99.90;;;;;;5056944;28;20492;-50
2020/12/21 01:27:24;;;;;;;16.97;11.63;;;4.70;99.90;;;;;;5057193;28;20658;-55
2020/12/21 01:29:49;;;;;;;16.37;11.40;;;4.70;99.90;;;;;;5057244;28;20245;-53
2020/12/21 01:32:15;;;;;;;18.00;13.00;;;4.70;99.90;;;;;;5055134;28;20225;-59
2020/12/21 01:34:41;;;;;;;16.50;12.17;;;4.80;99.90;;;;;;5056856;28;20269;-59
2020/12/21 01:37:06;;;;;;;15.90;11.93;;;4.80;99.90;;;;;;5056453;28;20202;-52
2020/12/21 01:39:32;;;;;;;17.80;12.50;;;4.80;99.90;;;;;;5056878;28;20171;-56
2020/12/21 01:41:57;;;;;;;16.93;12.77;;;4.80;99.90;;;;;;5057128;28;20707;-50
2020/12/21 01:44:23;;;;;;;19.37;12.13;;;4.80;99.90;;;;;;5057026;28;20527;-59
2020/12/21 01:46:48;;;;;;;21.17;13.20;;;4.80;99.90;;;;;;5057057;28;20203;-59
2020/12/21 01:49:15;;;;;;;19.57;13.10;;;4.80;99.90;;;;;;5056752;28;20190;-59
2020/12/21 01:51:41;;;;;;;17.83;12.93;;;4.80;99.90;;;;;;5057411;28;20638;-59
2020/12/21 01:54:08;;;;;;;17.87;13.50;;;4.80;99.90;;;;;;5057380;28;20179;-57
2020/12/21 01:56:35;;;;;;;21.33;14.83;;;4.80;99.90;;;;;;5056800;28;20182;-54
2020/12/21 01:59:02;;;;;;;19.87;13.73;;;4.70;99.90;;;;;;5056827;28;20183;-52
2020/12/21 02:01:28;;;;;;;20.10;14.30;;;4.60;99.90;;;;;;5055468;28;20202;-52
2020/12/21 02:03:54;;;;;;;19.63;14.20;;;4.60;99.90;;;;;;5056485;28;20171;-59
2020/12/21 02:06:20;;;;;;;18.57;13.27;;;4.60;99.90;;;;;;5056151;28;20574;-53
2020/12/21 02:08:46;;;;;;;21.73;14.00;;;4.70;99.90;;;;;;5057091;28;20527;-56
2020/12/21 02:11:11;;;;;;;21.60;14.17;;;4.70;99.90;;;;;;5056363;28;20187;-50
2020/12/21 02:13:37;;;;;;;22.10;13.73;;;4.70;99.90;;;;;;5056736;28;20190;-53
2020/12/21 02:16:03;;;;;;;22.27;14.77;;;4.70;99.90;;;;;;5056450;28;20266;-50
2020/12/21 02:18:29;;;;;;;22.77;14.57;;;4.70;99.90;;;;;;5056737;28;20206;-50
2020/12/21 02:20:54;;;;;;;21.80;13.97;;;4.80;99.90;;;;;;5056630;28;20167;-51
2020/12/21 02:23:20;;;;;;;21.60;14.67;;;4.80;99.90;;;;;;5056454;28;20175;-53
2020/12/21 02:25:46;;;;;;;20.33;13.83;;;4.80;99.90;;;;;;5056458;28;20254;-53
2020/12/21 02:28:11;;;;;;;22.93;15.07;;;4.80;99.90;;;;;;5056401;28;20195;-55
2020/12/21 02:30:37;;;;;;;23.87;15.87;;;4.80;99.90;;;;;;5056429;28;20210;-53
2020/12/21 02:33:06;;;;;;;23.33;15.40;;;4.70;99.90;;;;;;5056537;28;20562;-52
2020/12/21 02:35:33;;;;;;;22.77;15.03;;;4.70;99.90;;;;;;5055849;28;20286;-59
2020/12/21 02:37:59;;;;;;;23.63;15.17;;;4.60;99.90;;;;;;5056118;28;20598;-52
2020/12/21 02:40:25;;;;;;;23.20;15.00;;;4.60;99.90;;;;;;5056278;28;20186;-51
2020/12/21 02:42:50;;;;;;;21.90;15.20;;;4.60;99.90;;;;;;5055947;28;20195;-49
2020/12/21 02:45:16;;;;;;;23.20;15.33;;;4.60;99.90;;;;;;5055832;28;20179;-50
2020/12/21 02:47:41;;;;;;;23.37;15.77;;;4.50;99.90;;;;;;5055786;28;20199;-56
2020/12/21 02:50:07;;;;;;;24.17;15.60;;;4.60;99.90;;;;;;5055591;28;20199;-52
2020/12/21 02:52:32;;;;;;;25.27;15.83;;;4.60;99.90;;;;;;5055719;28;20523;-57
2020/12/21 02:54:58;;;;;;;26.50;17.27;;;4.60;99.90;;;;;;5055417;28;20218;-52
2020/12/21 02:57:24;;;;;;;26.10;17.00;;;4.50;99.90;;;;;;5055468;28;20577;-59
2020/12/21 02:59:50;;;;;;;22.90;15.13;;;4.50;99.90;;;;;;5055770;28;20179;-50
2020/12/21 03:02:15;;;;;;;24.27;14.93;;;4.40;99.90;;;;;;5055757;28;20250;-50
2020/12/21 03:04:40;;;;;;;24.03;15.70;;;4.30;99.90;;;;;;5055553;28;20183;-55
2020/12/21 03:07:06;;;;;;;23.70;16.33;;;4.30;99.90;;;;;;5055393;28;20195;-49
2020/12/21 03:09:31;;;;;;;24.70;16.07;;;4.30;99.90;;;;;;5055426;28;20195;-59
2020/12/21 03:11:57;;;;;;;23.27;15.70;;;4.30;99.90;;;;;;5055457;28;20385;-59
2020/12/21 03:14:23;;;;;;;26.37;16.40;;;4.30;99.90;;;;;;5055094;28;20257;-59
2020/12/21 03:16:48;;;;;;;23.47;15.33;;;4.40;99.90;;;;;;5055197;28;20340;-56
2020/12/21 03:19:14;;;;;;;25.23;15.60;;;4.50;99.90;;;;;;5055798;28;20260;-50
2020/12/21 03:21:39;;;;;;;25.47;16.23;;;4.50;99.90;;;;;;5055127;28;20635;-56
2020/12/21 03:24:05;;;;;;;24.47;16.03;;;4.60;99.90;;;;;;5055249;28;20175;-54
2020/12/21 03:26:30;;;;;;;22.60;15.53;;;4.50;99.90;;;;;;5054636;28;20233;-54
2020/12/21 03:28:57;;;;;;;24.43;16.67;;;4.50;99.90;;;;;;5055126;28;20191;-49
2020/12/21 03:31:22;;;;;;;27.43;17.53;;;4.50;99.90;;;;;;5054602;28;20175;-57
2020/12/21 03:33:48;;;;;;;24.67;16.27;;;4.40;99.90;;;;;;5055759;28;20622;-51
2020/12/21 03:36:14;;;;;;;22.03;15.63;;;4.50;99.90;;;;;;5054747;28;20202;-57
2020/12/21 03:38:39;;;;;;;26.33;16.90;;;4.50;99.90;;;;;;5054728;28;20198;-58
2020/12/21 03:41:05;;;;;;;27.53;16.80;;;4.40;99.90;;;;;;5054824;28;20257;-57
2020/12/21 03:43:30;;;;;;;23.27;16.33;;;4.40;99.90;;;;;;5054943;28;20190;-59
2020/12/21 03:45:56;;;;;;;26.53;16.53;;;4.40;99.90;;;;;;5055041;28;20180;-50
2020/12/21 03:48:22;;;;;;;25.87;15.70;;;4.50;99.90;;;;;;5054380;28;20199;-52
2020/12/21 03:50:47;;;;;;;26.73;17.27;;;4.40;99.90;;;;;;5055134;28;20167;-57
2020/12/21 03:53:13;;;;;;;24.30;16.13;;;4.40;99.90;;;;;;5054692;28;20603;-51
2020/12/21 03:55:38;;;;;;;24.33;15.73;;;4.50;99.90;;;;;;5054552;28;20179;-55
2020/12/21 03:58:04;;;;;;;26.20;15.57;;;4.50;99.90;;;;;;5054331;28;20547;-53
2020/12/21 04:00:29;;;;;;;25.13;16.07;;;4.50;99.90;;;;;;5054346;28;20183;-59
2020/12/21 04:02:55;;;;;;;24.00;16.43;;;4.50;99.90;;;;;;5037244;28;20270;-53
2020/12/21 04:05:21;;;;;;;21.70;15.37;;;4.50;99.90;;;;;;5034796;28;20241;-59
2020/12/21 04:07:47;;;;;;;23.33;15.13;;;4.50;99.90;;;;;;5034653;28;20265;-54
2020/12/21 04:10:12;;;;;;;22.20;15.20;;;4.60;99.90;;;;;;5033948;28;20211;-55
2020/12/21 04:12:38;;;;;;;23.70;15.60;;;4.60;99.90;;;;;;5034763;28;20655;-52
2020/12/21 04:15:05;;;;;;;24.17;15.43;;;4.70;99.90;;;;;;5034115;28;20176;-58
2020/12/21 04:17:30;;;;;;;23.87;15.53;;;4.60;99.90;;;;;;5034151;28;20257;-49
2020/12/21 04:19:56;;;;;;;22.20;15.23;;;4.60;99.90;;;;;;5035036;28;20195;-58
2020/12/21 04:22:21;;;;;;;26.10;15.37;;;4.50;99.90;;;;;;5034102;28;20539;-57
2020/12/21 04:24:47;;;;;;;23.33;15.37;;;4.50;99.90;;;;;;5034341;28;20180;-55
2020/12/21 04:27:12;;;;;;;23.40;14.47;;;4.50;99.90;;;;;;5034332;28;20249;-50
2020/12/21 04:29:38;;;;;;;26.30;16.80;;;4.40;99.90;;;;;;5034488;28;20651;-51
2020/12/21 04:32:04;;;;;;;21.83;14.60;;;4.50;99.90;;;;;;5034370;28;20298;-54
2020/12/21 04:34:30;;;;;;;23.53;15.33;;;4.50;99.90;;;;;;5034013;28;20160;-57
2020/12/21 04:36:55;;;;;;;23.50;15.90;;;4.50;99.90;;;;;;5034044;28;20188;-51
2020/12/21 04:39:24;;;;;;;25.03;16.13;;;4.40;99.90;;;;;;5033799;28;20176;-50
2020/12/21 04:41:56;;;;;;;22.60;15.97;;;4.50;99.90;;;;;;5033749;28;20200;-56
2020/12/21 04:44:23;;;;;;;22.27;14.80;;;4.40;99.90;;;;;;5033935;28;20567;-59
2020/12/21 04:46:51;;;;;;;25.93;16.73;;;4.40;99.90;;;;;;5034278;28;20599;-58
2020/12/21 04:49:17;;;;;;;24.90;15.93;;;4.50;99.90;;;;;;5034189;28;20203;-59
2020/12/21 04:51:46;;;;;;;26.37;17.03;;;4.40;99.90;;;;;;5033853;28;20180;-53
2020/12/21 04:54:12;;;;;;;25.87;16.17;;;4.40;99.90;;;;;;5033949;28;20256;-53
2020/12/21 04:56:40;;;;;;;21.30;15.73;;;4.30;99.90;;;;;;5033469;28;20527;-59
2020/12/21 04:59:05;;;;;;;25.10;16.70;;;4.30;99.90;;;;;;5034273;28;20528;-58
2020/12/21 05:01:31;;;;;;;23.63;15.23;;;4.30;99.90;;;;;;5034285;28;20678;-51
2020/12/21 05:03:57;;;;;;;22.83;15.83;;;4.30;99.90;;;;;;5034004;28;20172;-58
2020/12/21 05:06:23;;;;;;;25.67;16.70;;;4.40;99.90;;;;;;5040570;28;20226;-49
2020/12/21 05:09:06;;;;;;;27.07;17.40;;;4.40;99.90;;;;;;5053566;28;20250;-51
2020/12/21 05:11:36;;;;;;;26.07;16.03;;;4.40;99.90;;;;;;5052810;28;20210;-55
2020/12/21 05:14:09;;;;;;;26.70;15.40;;;4.30;99.90;;;;;;5053089;28;20300;-55
2020/12/21 05:16:35;;;;;;;24.30;15.77;;;4.30;99.90;;;;;;5051836;28;20269;-50
2020/12/21 05:19:01;;;;;;;25.00;15.87;;;4.30;99.90;;;;;;5053755;28;20183;-52
2020/12/21 05:21:27;;;;;;;23.67;15.63;;;4.30;99.90;;;;;;5053494;28;20175;-57
2020/12/21 05:23:58;;;;;;;26.03;17.03;;;4.30;99.90;;;;;;5052846;28;20270;-54
2020/12/21 05:26:31;;;;;;;30.43;17.87;;;4.30;99.90;;;;;;5053278;28;20187;-57
2020/12/21 05:28:57;;;;;;;23.73;15.23;;;4.20;99.90;;;;;;5053479;28;20293;-59
2020/12/21 05:31:23;;;;;;;24.47;17.10;;;4.20;99.90;;;;;;5053429;28;20173;-51
2020/12/21 05:33:49;;;;;;;25.43;16.57;;;4.30;99.90;;;;;;5053561;28;20270;-49
2020/12/21 05:36:19;;;;;;;23.87;16.33;;;4.40;99.90;;;;;;5053540;28;20210;-58
2020/12/21 05:39:02;;;;;;;25.73;16.50;;;4.40;99.90;;;;;;5052620;28;20207;-55
2020/12/21 05:41:28;;;;;;;25.67;16.40;;;4.50;99.90;;;;;;5053540;28;20250;-58
2020/12/21 05:43:56;;;;;;;26.77;17.07;;;4.50;99.90;;;;;;5052553;28;20211;-51
2020/12/21 05:46:25;;;;;;;25.47;16.67;;;4.40;99.90;;;;;;5053348;28;20183;-54
2020/12/21 05:48:55;;;;;;;25.67;16.63;;;4.40;99.90;;;;;;5053087;28;20199;-52
2020/12/21 05:51:26;;;;;;;28.20;17.47;;;4.40;99.90;;;;;;5053179;28;20183;-59
2020/12/21 05:53:53;;;;;;;24.47;16.97;;;4.40;99.90;;;;;;5054133;28;20187;-58
2020/12/21 05:56:21;;;;;;;27.33;17.90;;;4.40;99.90;;;;;;5054813;28;20195;-51
2020/12/21 05:58:46;;;;;;;25.57;17.17;;;4.40;99.90;;;;;;5056709;28;20228;-51
2020/12/21 06:01:13;;;;;;;25.87;16.30;;;4.30;99.90;;;;;;5056052;28;20221;-57
2020/12/21 06:03:53;;;;;;;26.50;17.27;;;4.30;99.90;;;;;;5056106;28;20179;-58
2020/12/21 06:06:23;;;;;;;26.50;17.37;;;4.40;99.90;;;;;;5030072;28;20197;-59
2020/12/21 06:08:56;;;;;;;28.80;18.40;;;4.40;99.90;;;;;;5039133;28;20226;-55
2020/12/21 06:11:27;;;;;;;27.30;18.27;;;4.30;99.90;;;;;;5036702;28;20196;-53
2020/12/21 06:13:58;;;;;;;26.47;17.63;;;4.30;99.90;;;;;;5053598;28;20179;-52
2020/12/21 06:16:25;;;;;;;26.70;18.10;;;4.40;99.90;;;;;;5056677;28;20270;-56
2020/12/21 06:19:00;;;;;;;28.77;18.57;;;4.30;99.90;;;;;;5055149;28;20229;-58
2020/12/21 06:21:39;;;;;;;29.83;19.43;;;4.40;99.90;;;;;;5055477;28;20186;-59
2020/12/21 06:24:18;;;;;;;25.97;17.07;;;4.30;99.90;;;;;;5055594;28;20181;-50
2020/12/21 06:26:44;;;;;;;27.10;17.80;;;4.30;99.90;;;;;;5056037;28;20623;-57
2020/12/21 06:29:14;;;;;;;25.03;16.83;;;4.30;99.90;;;;;;5056541;28;20219;-49
2020/12/21 06:32:01;;;;;;;25.53;17.17;;;4.30;99.90;;;;;;5056260;28;20171;-52
2020/12/21 06:34:27;;;;;;;27.90;18.90;;;4.40;99.90;;;;;;5055057;28;20654;-50
2020/12/21 06:37:00;;;;;;;28.33;17.87;;;4.40;99.90;;;;;;5055642;28;20203;-50
2020/12/21 06:39:26;;;;;;;25.23;16.50;;;4.40;99.90;;;;;;5056563;28;20194;-51
2020/12/21 06:42:04;;;;;;;28.70;18.30;;;4.50;99.90;;;;;;5054998;28;20199;-49
2020/12/21 06:44:30;;;;;;;29.87;18.80;;;4.50;99.90;;;;;;5055875;28;20205;-49
2020/12/21 06:46:57;;;;;;;26.07;17.53;;;4.50;99.90;;;;;;5055916;28;20199;-54
2020/12/21 06:49:22;;;;;;;28.90;18.53;;;4.50;99.90;;;;;;5055553;28;20202;-54
2020/12/21 06:51:49;;;;;;;30.53;18.63;;;4.50;99.90;;;;;;5055967;28;20178;-51
2020/12/21 06:54:16;;;;;;;29.33;18.07;;;4.60;99.90;;;;;;5055818;28;20174;-54
2020/12/21 06:56:44;;;;;;;29.47;19.40;;;4.60;99.90;;;;;;5055751;28;20257;-59
2020/12/21 06:59:14;;;;;;;31.03;19.43;;;4.60;99.90;;;;;;5055909;28;20603;-50
2020/12/21 07:01:41;;;;;;;35.57;21.73;;;4.70;99.90;;;;;;5056302;28;20163;-48
2020/12/21 07:04:22;;;;;;;38.40;21.90;;;4.70;99.90;;;;;;5056342;28;20233;-50
2020/12/21 07:06:49;;;;;;;32.97;22.13;;;4.60;99.90;;;;;;5054698;28;20237;-50
2020/12/21 07:09:21;;;;;;;31.83;19.23;;;4.50;99.90;;;;;;5054327;28;20221;-50
2020/12/21 07:11:53;;;;;;;29.53;20.07;;;4.50;99.90;;;;;;5054683;28;20199;-56
2020/12/21 07:14:21;;;;;;;31.70;20.30;;;4.50;99.90;;;;;;5055735;28;20228;-59
2020/12/21 07:16:47;;;;;;;29.83;18.97;;;4.40;99.90;;;;;;5056016;28;20244;-53
2020/12/21 07:19:12;;;;;;;27.87;17.90;;;4.40;99.90;;;;;;5050407;28;20200;-50
2020/12/21 07:21:39;;;;;;;25.27;16.67;;;4.50;99.90;;;;;;5045592;28;20317;-50
2020/12/21 07:24:07;;;;;;;29.83;19.60;;;4.60;99.90;;;;;;5044631;28;20589;-55
2020/12/21 07:26:33;;;;;;;27.53;18.83;;;4.60;99.90;;;;;;5043449;28;20627;-57
2020/12/21 07:28:58;;;;;;;27.07;17.90;;;4.60;99.90;;;;;;5044516;28;20226;-53
2020/12/21 07:31:24;;;;;;;29.43;18.90;;;4.60;99.90;;;;;;5044715;28;20180;-51
2020/12/21 07:33:58;;;;;;;26.77;16.90;;;4.60;99.90;;;;;;5054830;28;20659;-57
2020/12/21 07:36:27;;;;;;;26.07;17.83;;;4.70;99.90;;;;;;5054212;28;20191;-50
2020/12/21 07:39:03;;;;;;;26.73;18.23;;;4.70;99.90;;;;;;5054845;28;20179;-56
2020/12/21 07:41:30;;;;;;;27.07;18.00;;;4.70;99.90;;;;;;5054918;28;20254;-57
2020/12/21 07:44:03;;;;;;;26.87;17.83;;;4.70;99.90;;;;;;5053820;28;20198;-53
2020/12/21 07:46:55;;;;;;;26.80;18.23;;;4.80;99.90;;;;;;5054513;28;20549;-50
2020/12/21 07:49:22;;;;;;;24.57;16.70;;;4.80;99.90;;;;;;5053300;28;20249;-58
2020/12/21 07:51:48;;;;;;;24.60;16.40;;;4.70;99.90;;;;;;5054186;28;20183;-49
2020/12/21 07:54:14;;;;;;;25.03;17.40;;;4.60;99.90;;;;;;5054396;28;20527;-57
2020/12/21 07:56:40;;;;;;;24.20;16.67;;;4.70;99.90;;;;;;5054944;28;20578;-53
2020/12/21 07:59:11;;;;;;;24.70;16.73;;;4.70;99.90;;;;;;5054726;28;20183;-56
2020/12/21 08:01:39;;;;;;;24.03;16.50;;;4.80;99.90;;;;;;5054436;28;20187;-50
2020/12/21 08:04:16;;;;;;;24.00;15.73;;;4.80;99.90;;;;;;5054924;28;20190;-57
2020/12/21 08:06:42;;;;;;;23.40;16.83;;;4.90;99.90;;;;;;5054945;28;20182;-57
2020/12/21 08:09:09;;;;;;;23.33;16.10;;;4.90;99.90;;;;;;5053015;28;20249;-55
2020/12/21 08:11:36;;;;;;;24.73;17.50;;;4.90;99.90;;;;;;5054137;28;20205;-49
2020/12/21 08:14:02;;;;;;;24.13;16.53;;;4.90;99.90;;;;;;5054053;28;20183;-57
2020/12/21 08:16:28;;;;;;;23.50;17.00;;;4.90;99.90;;;;;;5053897;28;20526;-53
2020/12/21 08:18:54;;;;;;;24.53;16.40;;;4.80;99.90;;;;;;5054223;28;20679;-59
2020/12/21 08:21:23;;;;;;;22.20;16.70;;;4.80;99.90;;;;;;5054825;28;20543;-56
2020/12/21 08:23:54;;;;;;;24.20;16.47;;;4.90;99.90;;;;;;5054360;28;20178;-49
2020/12/21 08:26:20;;;;;;;23.67;17.03;;;5.00;99.90;;;;;;5053793;28;20187;-59
2020/12/21 08:28:48;;;;;;;24.63;17.33;;;5.10;99.90;;;;;;5054164;28;20210;-51
2020/12/21 08:31:18;;;;;;;21.83;15.47;;;5.00;99.90;;;;;;5054169;28;20180;-60
2020/12/21 08:34:03;;;;;;;20.97;15.83;;;5.00;99.90;;;;;;5065636;28;20174;-53
2020/12/21 08:36:35;;;;;;;20.13;15.53;;;5.00;99.90;;;;;;5046756;28;20195;-51
2020/12/21 08:39:09;;;;;;;19.87;14.70;;;5.00;99.90;;;;;;5051882;28;20190;-54
2020/12/21 08:41:39;;;;;;;21.37;15.50;;;5.10;99.90;;;;;;5056172;28;20187;-51
2020/12/21 08:44:07;;;;;;;21.60;15.43;;;5.10;99.90;;;;;;5069801;28;20174;-52
2020/12/21 08:46:32;;;;;;;22.00;15.33;;;5.10;99.90;;;;;;5059214;28;20630;-50
2020/12/21 08:48:58;;;;;;;19.53;15.23;;;5.10;99.90;;;;;;5058616;28;20204;-55
2020/12/21 08:51:23;;;;;;;18.03;13.67;;;5.20;99.90;;;;;;5033880;28;20187;-51
2020/12/21 08:53:49;;;;;;;18.83;14.03;;;5.30;99.90;;;;;;5034027;28;20180;-54
2020/12/21 08:56:15;;;;;;;20.47;14.93;;;5.40;99.90;;;;;;5033621;28;20176;-54
2020/12/21 08:58:41;;;;;;;19.70;14.40;;;5.40;99.90;;;;;;5033692;28;20198;-54
2020/12/21 09:01:07;;;;;;;19.93;14.50;;;5.50;99.90;;;;;;5033631;28;20179;-50
2020/12/21 09:03:34;;;;;;;18.80;14.30;;;5.50;99.90;;;;;;5033613;28;20639;-57
2020/12/21 09:06:00;;;;;;;20.03;13.53;;;5.50;99.90;;;;;;5033590;28;20172;-49
2020/12/21 09:08:25;;;;;;;19.10;14.27;;;5.60;99.90;;;;;;5034155;28;20206;-58
2020/12/21 09:10:51;;;;;;;19.27;15.13;;;5.70;99.90;;;;;;5032691;28;20234;-50
2020/12/21 09:13:17;;;;;;;18.83;14.23;;;5.80;99.90;;;;;;5044105;28;20515;-55
2020/12/21 09:15:42;;;;;;;18.30;13.50;;;5.90;99.90;;;;;;5034286;28;20279;-59
2020/12/21 09:18:08;;;;;;;18.73;14.03;;;6.00;99.90;;;;;;5051064;28;20222;-53
2020/12/21 09:20:33;;;;;;;19.30;14.13;;;6.10;99.90;;;;;;5050165;28;20175;-59
2020/12/21 09:22:59;;;;;;;20.10;15.47;;;6.10;99.90;;;;;;5049019;28;20209;-52
2020/12/21 09:25:25;;;;;;;21.93;16.30;;;6.10;99.90;;;;;;5052974;28;20254;-52
2020/12/21 09:27:50;;;;;;;18.27;13.07;;;6.10;99.90;;;;;;5052477;28;20558;-51
2020/12/21 09:30:16;;;;;;;18.07;14.10;;;6.10;99.90;;;;;;5055484;28;20597;-53
2020/12/21 09:32:41;;;;;;;19.03;14.57;;;6.20;99.90;;;;;;5056979;28;20241;-54
2020/12/21 09:35:07;;;;;;;17.77;13.53;;;6.10;99.90;;;;;;5056729;28;20175;-50
2020/12/21 09:37:32;;;;;;;16.27;12.90;;;6.00;99.90;;;;;;5056889;28;20248;-50
2020/12/21 09:39:58;;;;;;;17.13;12.60;;;6.00;99.90;;;;;;5056934;28;20186;-55
2020/12/21 09:42:24;;;;;;;16.43;13.03;;;5.90;99.90;;;;;;5056547;28;20179;-60
2020/12/21 09:44:50;;;;;;;17.50;13.63;;;6.00;99.90;;;;;;5056526;28;20265;-50
2020/12/21 09:47:17;;;;;;;18.40;13.30;;;6.20;99.90;;;;;;5056910;28;20646;-52
2020/12/21 09:49:43;;;;;;;15.97;12.73;;;6.20;99.90;;;;;;5056829;28;20242;-50
2020/12/21 09:52:08;;;;;;;15.80;11.93;;;6.30;99.90;;;;;;5056763;28;20204;-55
2020/12/21 09:54:34;;;;;;;16.90;13.30;;;6.30;99.90;;;;;;5056616;28;20175;-55
2020/12/21 09:57:01;;;;;;;16.63;13.17;;;6.40;99.90;;;;;;5056276;28;20197;-59
2020/12/21 09:59:27;;;;;;;17.40;12.93;;;6.50;99.90;;;;;;5056382;28;20179;-54
2020/12/21 10:01:55;;;;;;;19.80;15.23;;;6.60;99.90;;;;;;5054902;28;20626;-50
2020/12/21 10:04:21;;;;;;;19.33;13.80;;;6.80;99.90;;;;;;5036574;28;20631;-51
2020/12/21 10:06:50;;;;;;;19.50;14.03;;;6.80;99.90;;;;;;5053492;28;20214;-54
2020/12/21 10:09:16;;;;;;;16.60;13.70;;;6.80;99.90;;;;;;5054062;28;20210;-54
2020/12/21 10:11:41;;;;;;;16.43;13.43;;;7.00;99.90;;;;;;5053420;28;20199;-54
2020/12/21 10:14:07;;;;;;;16.83;12.77;;;7.10;99.90;;;;;;5054117;28;20176;-50
2020/12/21 10:16:33;;;;;;;15.53;12.77;;;7.30;99.90;;;;;;5051843;28;20175;-59
2020/12/21 10:18:59;;;;;;;15.93;12.70;;;7.60;99.90;;;;;;5056265;28;20179;-53
2020/12/21 10:21:24;;;;;;;15.13;12.47;;;8.00;99.90;;;;;;5056687;28;20278;-53
2020/12/21 10:23:50;;;;;;;15.07;12.77;;;8.40;99.90;;;;;;5055470;28;20179;-53
2020/12/21 10:26:15;;;;;;;14.93;11.43;;;8.80;99.90;;;;;;5055061;28;20205;-50
2020/12/21 10:28:40;;;;;;;13.30;11.43;;;9.10;99.90;;;;;;5055494;28;20199;-53
2020/12/21 10:31:06;;;;;;;14.23;11.87;;;9.20;99.90;;;;;;5054853;28;20205;-50
2020/12/21 10:33:32;;;;;;;14.40;11.53;;;9.20;99.90;;;;;;5054699;28;20203;-48
2020/12/21 10:35:57;;;;;;;15.20;11.93;;;9.10;99.90;;;;;;5056178;28;20239;-49
2020/12/21 10:38:23;;;;;;;14.97;11.47;;;9.00;99.90;;;;;;5055152;28;20243;-48
2020/12/21 10:40:48;;;;;;;12.87;10.37;;;9.10;99.90;;;;;;5055165;28;20160;-54
2020/12/21 10:43:14;;;;;;;14.03;11.40;;;9.10;99.90;;;;;;5054739;28;20179;-55
2020/12/21 10:45:39;;;;;;;12.43;10.73;;;9.10;99.90;;;;;;5054141;28;20179;-52
2020/12/21 10:48:05;;;;;;;13.57;11.00;;;9.20;99.90;;;;;;5054518;28;20594;-58
2020/12/21 10:50:31;;;;;;;13.67;10.90;;;9.40;99.90;;;;;;5054383;28;20322;-57
2020/12/21 10:52:56;;;;;;;12.13;10.80;;;10.00;99.90;;;;;;5054679;28;20179;-53
2020/12/21 10:55:22;;;;;;;13.37;10.93;;;10.60;99.90;;;;;;5054814;28;20221;-58
2020/12/21 10:57:48;;;;;;;14.73;10.47;;;11.00;99.90;;;;;;5055410;28;20213;-51
2020/12/21 11:00:14;;;;;;;11.17;9.80;;;11.50;99.90;;;;;;5055773;28;20579;-51
2020/12/21 11:02:39;;;;;;;13.23;10.77;;;12.00;99.90;;;;;;5055657;28;20698;-48
2020/12/21 11:05:05;;;;;;;12.57;10.50;;;12.40;99.90;;;;;;5055165;28;20289;-49
2020/12/21 11:07:31;;;;;;;12.27;10.57;;;12.90;99.90;;;;;;5055770;28;20278;-58
2020/12/21 11:09:57;;;;;;;11.33;10.13;;;13.20;99.90;;;;;;5055665;28;20210;-50
2020/12/21 11:12:23;;;;;;;10.90;9.50;;;13.60;99.90;;;;;;5055151;28;20162;-57
2020/12/21 11:14:50;;;;;;;10.70;9.40;;;13.90;99.90;;;;;;5055102;28;20178;-57
2020/12/21 11:17:16;;;;;;;10.87;9.70;;;14.10;99.90;;;;;;5055564;28;20197;-55
2020/12/21 11:19:41;;;;;;;11.10;9.90;;;14.50;99.90;;;;;;5055787;28;20179;-58
2020/12/21 11:22:07;;;;;;;10.97;9.70;;;15.80;99.90;;;;;;5055392;28;20175;-52
2020/12/21 11:24:32;;;;;;;10.30;9.30;;;15.30;99.10;;;;;;5055410;28;20512;-55
2020/12/21 11:26:59;;;;;;;9.53;8.50;;;16.00;98.50;;;;;;5054735;28;20225;-50
2020/12/21 11:29:24;;;;;;;10.33;9.20;;;16.70;97.60;;;;;;5037071;28;20203;-58
2020/12/21 11:31:50;;;;;;;11.07;9.90;;;17.30;95.90;;;;;;5055667;28;20174;-54
2020/12/21 11:34:16;;;;;;;10.20;9.20;;;17.80;95.40;;;;;;5055280;28;20257;-51
2020/12/21 11:36:43;;;;;;;9.93;8.93;;;17.90;93.90;;;;;;5055388;28;20558;-52
2020/12/21 11:39:08;;;;;;;10.17;9.07;;;17.80;94.00;;;;;;5055386;28;20521;-50
2020/12/21 11:41:34;;;;;;;12.90;11.53;;;17.70;93.70;;;;;;5055100;28;20634;-57
2020/12/21 11:43:59;;;;;;;11.43;10.33;;;16.80;93.20;;;;;;5054810;28;20176;-58
2020/12/21 11:46:29;;;;;;;12.57;11.23;;;16.50;94.10;;;;;;5054768;28;20189;-56
2020/12/21 11:48:55;;;;;;;12.63;11.33;;;16.00;93.50;;;;;;5054651;28;20263;-52
2020/12/21 11:51:21;;;;;;;12.57;11.03;;;15.60;94.30;;;;;;5054626;28;20199;-51
2020/12/21 11:53:46;;;;;;;13.43;12.03;;;15.20;94.70;;;;;;5055116;28;20172;-53
2020/12/21 11:56:19;;;;;;;13.43;11.80;;;14.90;94.90;;;;;;5054270;28;20175;-58
2020/12/21 11:58:45;;;;;;;14.23;11.47;;;14.60;95.90;;;;;;5054645;28;20191;-51
2020/12/21 12:01:11;;;;;;;14.27;11.73;;;14.50;96.10;;;;;;5054571;28;20504;-58
2020/12/21 12:03:36;;;;;;;12.70;11.40;;;14.20;96.30;;;;;;5054801;28;20296;-49
2020/12/21 12:06:02;;;;;;;13.30;11.53;;;14.00;96.40;;;;;;5054019;28;20178;-54
2020/12/21 12:08:27;;;;;;;12.07;10.80;;;13.80;96.60;;;;;;5053942;28;20191;-51
2020/12/21 12:10:53;;;;;;;13.97;11.60;;;13.60;96.90;;;;;;5054046;28;20222;-48
2020/12/21 12:13:19;;;;;;;12.87;11.33;;;13.30;97.40;;;;;;5052227;28;20205;-49
2020/12/21 12:15:44;;;;;;;11.87;10.67;;;13.40;97.80;;;;;;5053849;28;20179;-52
2020/12/21 12:18:10;;;;;;;13.27;11.23;;;13.60;97.80;;;;;;5053360;28;20202;-51
2020/12/21 12:20:35;;;;;;;17.17;15.17;;;13.80;97.80;;;;;;5054013;28;20515;-58
2020/12/21 12:23:01;;;;;;;13.17;11.77;;;14.30;97.10;;;;;;5054631;28;20181;-49
2020/12/21 12:25:26;;;;;;;13.23;11.60;;;13.60;97.40;;;;;;5053982;28;20622;-51
2020/12/21 12:27:52;;;;;;;12.90;11.30;;;13.50;97.50;;;;;;5053920;28;20580;-58
2020/12/21 12:30:17;;;;;;;13.30;11.90;;;13.20;97.90;;;;;;5054008;28;20519;-50
2020/12/21 12:32:43;;;;;;;13.23;11.83;;;12.80;98.60;;;;;;5054309;28;20689;-50
2020/12/21 12:35:08;;;;;;;14.60;13.10;;;12.80;98.80;;;;;;5053786;28;20258;-55